Time;durP1;ratioP1;P1;durP2;ratioP2;P2;SDS_P1;SDS_P2;PMS_P1;PMS_P2;Temp;Humidity;BMP_temperature;BMP_pressure;BME280_temperature;BME280_humidity;BME280_pressure;Samples;Min_cycle;Max_cycle;Signal;HPM_P1;HPM_P2
2023/12/13 00:01:51;;;;;;;2.30;0.80;;;7.40;99.90;;;;;;5006072;28;20057;-83
2023/12/13 00:04:17;;;;;;;0.90;0.70;;;7.40;99.90;;;;;;4997836;28;20022;-84
2023/12/13 00:06:42;;;;;;;1.00;0.80;;;7.40;99.90;;;;;;4998505;28;20043;-84
2023/12/13 00:09:08;;;;;;;0.87;0.60;;;7.40;99.90;;;;;;4996622;28;20049;-84
2023/12/13 00:11:34;;;;;;;1.00;0.90;;;7.40;99.90;;;;;;4996934;28;20048;-85
2023/12/13 00:13:59;;;;;;;0.60;0.60;;;7.40;99.90;;;;;;4998506;28;20549;-84
2023/12/13 00:16:25;;;;;;;1.00;0.70;;;7.40;99.90;;;;;;5000692;28;20026;-83
2023/12/13 00:18:51;;;;;;;2.83;0.70;;;7.40;99.90;;;;;;4975709;28;20026;-83
2023/12/13 00:21:17;;;;;;;1.30;0.70;;;7.40;99.90;;;;;;5000233;28;20034;-84
2023/12/13 00:23:44;;;;;;;0.70;0.60;;;7.40;99.90;;;;;;5000460;28;20087;-84
2023/12/13 00:26:14;;;;;;;2.10;0.77;;;7.40;99.90;;;;;;4999606;28;20030;-84
2023/12/13 00:28:39;;;;;;;0.70;0.70;;;7.40;99.90;;;;;;4980850;28;20029;-83
2023/12/13 00:31:05;;;;;;;0.70;0.70;;;7.40;99.90;;;;;;4997919;28;20026;-83
2023/12/13 00:33:32;;;;;;;1.13;0.70;;;7.40;99.90;;;;;;4998273;28;20093;-84
2023/12/13 00:35:58;;;;;;;0.73;0.73;;;7.40;99.90;;;;;;4998507;28;20436;-84
2023/12/13 00:38:24;;;;;;;1.03;0.70;;;7.40;99.90;;;;;;4996913;28;20053;-83
2023/12/13 00:40:49;;;;;;;1.13;0.70;;;7.40;99.90;;;;;;4998672;28;20087;-84
2023/12/13 00:43:15;;;;;;;1.53;0.77;;;7.40;99.90;;;;;;4980897;28;20038;-86
2023/12/13 00:45:40;;;;;;;0.63;0.63;;;7.50;99.90;;;;;;4973967;28;20049;-83
2023/12/13 00:48:06;;;;;;;1.27;0.80;;;7.50;99.90;;;;;;5000018;28;20045;-84
2023/12/13 00:50:32;;;;;;;0.70;0.70;;;7.50;99.90;;;;;;4999965;28;21615;-83
2023/12/13 00:52:58;;;;;;;0.67;0.67;;;7.50;99.90;;;;;;4998964;28;20018;-84
2023/12/13 00:55:23;;;;;;;0.63;0.63;;;7.50;99.90;;;;;;4979577;28;20034;-84
2023/12/13 00:57:49;;;;;;;0.93;0.70;;;7.50;99.90;;;;;;5001594;28;20034;-84
2023/12/13 01:00:15;;;;;;;2.33;0.80;;;7.50;99.90;;;;;;5000908;28;20041;-83
2023/12/13 01:02:40;;;;;;;1.10;0.90;;;7.50;99.90;;;;;;4999853;28;20139;-83
2023/12/13 01:05:07;;;;;;;0.77;0.67;;;7.40;99.90;;;;;;4999577;28;20038;-83
2023/12/13 01:07:32;;;;;;;1.23;0.87;;;7.50;99.90;;;;;;4998059;28;20057;-84
2023/12/13 01:09:58;;;;;;;1.03;0.90;;;7.40;99.90;;;;;;4997218;28;20034;-83
2023/12/13 01:12:23;;;;;;;1.03;0.80;;;7.40;99.90;;;;;;4999560;28;20067;-84
2023/12/13 01:14:49;;;;;;;0.87;0.70;;;7.40;99.90;;;;;;4999428;28;20445;-84
2023/12/13 01:17:14;;;;;;;0.57;0.57;;;7.40;99.90;;;;;;4998260;28;20068;-83
2023/12/13 01:19:40;;;;;;;0.80;0.63;;;7.50;99.90;;;;;;4998952;28;20026;-83
2023/12/13 01:22:05;;;;;;;0.60;0.60;;;7.50;99.90;;;;;;5002621;28;21068;-83
2023/12/13 01:24:31;;;;;;;0.60;0.53;;;7.50;99.90;;;;;;5000283;28;20030;-84
2023/12/13 01:26:57;;;;;;;0.70;0.70;;;7.50;99.90;;;;;;5000854;28;20109;-84
2023/12/13 01:29:23;;;;;;;2.03;0.70;;;7.50;99.90;;;;;;5000245;28;20032;-83
2023/12/13 01:31:48;;;;;;;2.30;0.70;;;7.50;99.90;;;;;;5000631;28;20034;-84
2023/12/13 01:34:15;;;;;;;0.97;0.63;;;7.50;99.90;;;;;;4996040;28;20052;-83
2023/12/13 01:36:43;;;;;;;2.20;0.60;;;7.50;99.90;;;;;;5005689;28;20850;-84
2023/12/13 01:39:09;;;;;;;1.07;0.83;;;7.60;99.90;;;;;;5002426;28;20169;-83
2023/12/13 01:41:35;;;;;;;0.97;0.70;;;7.60;99.90;;;;;;5002141;28;20077;-84
2023/12/13 01:44:01;;;;;;;0.60;0.60;;;7.70;99.90;;;;;;5000627;28;20033;-84
2023/12/13 01:46:27;;;;;;;0.50;0.50;;;7.70;99.90;;;;;;5003235;28;20038;-83
2023/12/13 01:48:52;;;;;;;1.67;0.60;;;7.80;99.90;;;;;;5001745;28;20030;-83
2023/12/13 01:51:18;;;;;;;1.33;0.80;;;7.80;99.90;;;;;;5001035;28;20014;-84
2023/12/13 01:53:44;;;;;;;0.60;0.53;;;7.80;99.90;;;;;;5001223;28;20022;-83
2023/12/13 01:56:11;;;;;;;0.67;0.60;;;7.80;99.90;;;;;;4999245;28;20033;-84
2023/12/13 01:58:38;;;;;;;0.87;0.70;;;7.80;99.90;;;;;;4999703;28;20022;-83
2023/12/13 02:01:04;;;;;;;1.03;0.70;;;7.90;99.90;;;;;;5001195;28;20041;-84
2023/12/13 02:03:30;;;;;;;0.97;0.73;;;7.90;99.90;;;;;;4999797;28;20022;-86
2023/12/13 02:05:56;;;;;;;0.90;0.70;;;7.90;99.90;;;;;;5001288;28;20034;-83
2023/12/13 02:08:22;;;;;;;0.60;0.60;;;7.90;99.90;;;;;;5005119;28;20736;-84
2023/12/13 02:10:48;;;;;;;0.60;0.60;;;7.90;99.90;;;;;;5002054;28;21516;-84
2023/12/13 02:13:15;;;;;;;0.97;0.63;;;7.80;99.90;;;;;;4988213;28;20022;-85
2023/12/13 02:15:43;;;;;;;1.10;0.60;;;7.80;99.90;;;;;;5006821;28;20037;-84
2023/12/13 02:18:11;;;;;;;1.07;0.70;;;7.80;99.90;;;;;;5000570;28;20029;-83
2023/12/13 02:20:37;;;;;;;0.60;0.60;;;7.80;99.90;;;;;;5000247;28;20028;-83
2023/12/13 02:23:03;;;;;;;1.33;0.70;;;7.80;99.90;;;;;;4999439;28;20038;-84
2023/12/13 02:25:38;;;;;;;1.27;0.50;;;7.80;99.90;;;;;;4999705;28;20046;-84
2023/12/13 02:28:05;;;;;;;2.30;0.70;;;7.80;99.90;;;;;;5000092;28;20068;-85
2023/12/13 02:30:31;;;;;;;2.57;0.63;;;7.70;99.90;;;;;;5000601;28;20521;-83
2023/12/13 02:32:57;;;;;;;3.13;0.70;;;7.70;99.90;;;;;;4999112;28;21284;-84
2023/12/13 02:35:23;;;;;;;1.00;0.80;;;7.60;99.90;;;;;;4999705;28;20064;-84
2023/12/13 02:37:49;;;;;;;1.60;0.50;;;7.60;99.90;;;;;;4999148;28;20030;-84
2023/12/13 02:40:22;;;;;;;1.07;0.63;;;7.60;99.90;;;;;;4998844;28;20080;-84
2023/12/13 02:42:47;;;;;;;1.63;0.70;;;7.60;99.90;;;;;;4999240;28;21603;-84
2023/12/13 02:45:14;;;;;;;0.50;0.50;;;7.60;99.90;;;;;;4978434;28;20049;-84
2023/12/13 02:47:42;;;;;;;1.43;0.73;;;7.60;99.90;;;;;;4999732;28;20026;-84
2023/12/13 02:50:11;;;;;;;1.70;0.70;;;7.60;99.90;;;;;;4979852;28;20089;-83
2023/12/13 02:52:40;;;;;;;2.20;0.80;;;7.50;99.90;;;;;;4998993;28;20010;-84
2023/12/13 02:55:09;;;;;;;1.63;0.90;;;7.60;99.90;;;;;;4997385;28;20112;-85
2023/12/13 02:57:35;;;;;;;0.57;0.50;;;7.50;99.90;;;;;;4999583;28;20678;-84
2023/12/13 03:00:01;;;;;;;2.57;0.80;;;7.50;99.90;;;;;;4999282;28;20041;-84
2023/12/13 03:02:26;;;;;;;1.53;0.70;;;7.40;99.90;;;;;;4980043;28;20029;-85
2023/12/13 03:04:52;;;;;;;4.30;1.40;;;7.40;99.90;;;;;;4997364;28;20030;-84
2023/12/13 03:07:18;;;;;;;2.70;0.80;;;7.40;99.90;;;;;;4999605;28;20026;-83
2023/12/13 03:09:44;;;;;;;3.93;0.80;;;7.30;99.90;;;;;;4998951;28;20029;-84
2023/12/13 03:12:10;;;;;;;1.57;0.80;;;7.30;99.90;;;;;;4979845;28;20022;-84
2023/12/13 03:14:36;;;;;;;3.50;0.77;;;7.30;99.90;;;;;;4999153;28;20026;-84
2023/12/13 03:17:01;;;;;;;2.17;0.87;;;7.30;99.90;;;;;;4998221;28;21067;-84
2023/12/13 03:19:27;;;;;;;2.20;1.10;;;7.20;99.90;;;;;;4998429;28;20538;-84
2023/12/13 03:21:52;;;;;;;4.20;1.00;;;7.20;99.90;;;;;;5002186;28;20057;-85
2023/12/13 03:24:18;;;;;;;2.23;0.77;;;7.20;99.90;;;;;;5006403;28;20030;-84
2023/12/13 03:26:43;;;;;;;1.40;0.60;;;7.20;99.90;;;;;;4997497;28;20039;-84
2023/12/13 03:29:09;;;;;;;3.23;0.90;;;7.20;99.90;;;;;;4997203;28;20033;-84
2023/12/13 03:31:34;;;;;;;1.67;0.70;;;7.20;99.90;;;;;;4998914;28;20119;-85
2023/12/13 03:34:00;;;;;;;2.07;0.83;;;7.20;99.90;;;;;;4996123;28;20026;-83
2023/12/13 03:36:26;;;;;;;3.30;0.77;;;7.10;99.90;;;;;;4997343;28;20073;-83
2023/12/13 03:38:52;;;;;;;4.93;0.97;;;7.10;99.90;;;;;;4998316;28;20050;-83
2023/12/13 03:41:18;;;;;;;2.50;0.73;;;7.10;99.90;;;;;;4995783;28;20030;-84
2023/12/13 03:43:43;;;;;;;2.53;0.77;;;7.10;99.90;;;;;;4997304;28;20152;-84
2023/12/13 03:46:09;;;;;;;2.50;0.90;;;7.10;99.90;;;;;;5000267;28;20061;-83
2023/12/13 03:48:34;;;;;;;1.43;0.70;;;7.10;99.90;;;;;;4994534;28;20022;-85
2023/12/13 03:51:01;;;;;;;1.57;0.70;;;7.10;99.90;;;;;;4996949;28;20036;-83
2023/12/13 03:53:27;;;;;;;3.07;0.87;;;7.10;99.90;;;;;;4993796;28;20501;-85
2023/12/13 03:55:52;;;;;;;2.27;0.90;;;7.10;99.90;;;;;;4997947;28;20030;-83
2023/12/13 03:58:18;;;;;;;4.40;1.93;;;7.10;99.90;;;;;;4998381;28;20026;-83
2023/12/13 04:00:43;;;;;;;2.70;0.70;;;7.00;99.90;;;;;;4996192;28;20030;-84
2023/12/13 04:03:09;;;;;;;1.90;0.70;;;7.00;99.90;;;;;;4997791;28;20065;-84
2023/12/13 04:05:34;;;;;;;1.53;1.10;;;7.00;99.90;;;;;;4998483;28;20064;-84
2023/12/13 04:08:00;;;;;;;3.93;0.80;;;7.00;99.90;;;;;;4998590;28;20377;-84
2023/12/13 04:10:26;;;;;;;5.57;1.20;;;6.90;99.90;;;;;;4999404;28;20076;-84
2023/12/13 04:12:52;;;;;;;2.00;0.80;;;6.90;99.90;;;;;;4998278;28;20026;-84
2023/12/13 04:15:17;;;;;;;1.87;0.70;;;6.80;99.90;;;;;;4997453;28;20529;-83
2023/12/13 04:17:43;;;;;;;2.70;1.00;;;6.80;99.90;;;;;;4996871;28;20085;-84
2023/12/13 04:20:09;;;;;;;5.60;0.97;;;6.80;99.90;;;;;;4997938;28;20108;-84
2023/12/13 04:22:35;;;;;;;1.43;0.90;;;6.80;99.90;;;;;;4995181;28;20023;-84
2023/12/13 04:25:00;;;;;;;2.13;0.80;;;6.70;99.90;;;;;;4995671;28;20026;-84
2023/12/13 04:27:26;;;;;;;2.23;0.70;;;6.70;99.90;;;;;;4998457;28;20014;-85
2023/12/13 04:29:51;;;;;;;2.17;0.73;;;6.70;99.90;;;;;;4997567;28;20137;-84
2023/12/13 04:32:17;;;;;;;3.47;1.20;;;6.60;99.90;;;;;;4997237;28;20034;-85
2023/12/13 04:34:43;;;;;;;3.67;1.50;;;6.50;99.90;;;;;;4997044;28;20038;-85
2023/12/13 04:37:09;;;;;;;3.77;1.90;;;6.50;99.90;;;;;;4996315;28;20026;-84
2023/12/13 04:39:35;;;;;;;4.80;1.60;;;6.40;99.90;;;;;;4997756;28;20022;-84
2023/12/13 04:42:00;;;;;;;2.37;1.10;;;6.40;99.90;;;;;;4979668;28;21044;-84
2023/12/13 04:44:27;;;;;;;2.40;1.17;;;6.30;99.90;;;;;;4997162;28;20345;-84
2023/12/13 04:46:54;;;;;;;2.87;0.90;;;6.30;99.90;;;;;;4981991;28;21026;-84
2023/12/13 04:49:20;;;;;;;3.53;1.03;;;6.30;99.90;;;;;;4996544;28;20022;-84
2023/12/13 04:51:45;;;;;;;3.67;1.00;;;6.30;99.90;;;;;;4995297;28;20034;-84
2023/12/13 04:54:11;;;;;;;1.53;1.00;;;6.20;99.90;;;;;;4998177;28;20028;-85
2023/12/13 04:56:37;;;;;;;3.33;1.03;;;6.20;99.90;;;;;;5001865;28;20158;-84
2023/12/13 04:59:02;;;;;;;1.03;0.80;;;6.20;99.90;;;;;;5002357;28;20026;-84
2023/12/13 05:01:28;;;;;;;3.97;1.53;;;6.20;99.90;;;;;;5002177;28;20062;-85
2023/12/13 05:03:56;;;;;;;3.80;1.40;;;6.20;99.90;;;;;;5001473;28;20077;-84
2023/12/13 05:06:22;;;;;;;1.73;1.10;;;6.20;99.90;;;;;;5002108;28;20049;-84
2023/12/13 05:08:47;;;;;;;2.50;1.00;;;6.30;99.90;;;;;;5002944;28;20030;-84
2023/12/13 05:11:13;;;;;;;3.30;1.10;;;6.30;99.90;;;;;;5006732;28;20193;-84
2023/12/13 05:13:38;;;;;;;2.90;1.00;;;6.30;99.90;;;;;;5007957;28;20057;-86
2023/12/13 05:16:04;;;;;;;2.20;1.03;;;6.30;99.90;;;;;;5002055;28;20026;-84
2023/12/13 05:18:30;;;;;;;2.13;1.10;;;6.30;99.90;;;;;;5002139;28;20022;-85
2023/12/13 05:20:55;;;;;;;3.17;1.20;;;6.30;99.90;;;;;;5001457;28;20073;-84
2023/12/13 05:23:21;;;;;;;4.40;1.10;;;6.40;99.90;;;;;;5002841;28;20109;-84
2023/12/13 05:25:46;;;;;;;2.47;1.00;;;6.40;99.90;;;;;;5001625;28;21597;-85
2023/12/13 05:28:12;;;;;;;2.70;1.13;;;6.40;99.90;;;;;;5001384;28;20056;-84
2023/12/13 05:30:37;;;;;;;4.67;1.30;;;6.40;99.90;;;;;;4999596;28;20022;-86
2023/12/13 05:33:04;;;;;;;4.80;1.40;;;6.40;99.90;;;;;;5000840;28;20034;-85
2023/12/13 05:35:30;;;;;;;3.67;1.73;;;6.40;99.90;;;;;;5001917;28;20040;-85
2023/12/13 05:37:55;;;;;;;5.20;1.60;;;6.40;99.90;;;;;;4984561;28;20034;-85
2023/12/13 05:40:22;;;;;;;3.57;1.50;;;6.40;99.90;;;;;;5002301;28;20049;-85
2023/12/13 05:42:47;;;;;;;3.87;1.73;;;6.40;99.90;;;;;;4999511;28;20022;-86
2023/12/13 05:45:13;;;;;;;4.10;1.63;;;6.40;99.90;;;;;;5001837;28;20038;-85
2023/12/13 05:47:38;;;;;;;3.30;1.47;;;6.30;99.90;;;;;;5001136;28;20152;-84
2023/12/13 05:50:05;;;;;;;2.70;1.37;;;6.30;99.90;;;;;;4983243;28;20384;-86
2023/12/13 05:52:32;;;;;;;4.33;2.27;;;6.30;99.90;;;;;;5000477;28;20056;-86
2023/12/13 05:54:59;;;;;;;3.00;1.30;;;6.30;99.90;;;;;;4983018;28;20044;-86
2023/12/13 05:57:25;;;;;;;1.90;1.30;;;6.30;99.90;;;;;;4999178;28;20038;-86
2023/12/13 05:59:50;;;;;;;3.30;1.70;;;6.20;99.90;;;;;;4998376;28;20030;-85
2023/12/13 06:02:16;;;;;;;3.90;1.50;;;6.20;99.90;;;;;;5001603;28;20026;-86
2023/12/13 06:04:43;;;;;;;4.67;1.67;;;6.20;99.90;;;;;;4982798;28;20026;-85
2023/12/13 06:07:09;;;;;;;3.73;1.60;;;6.10;99.90;;;;;;4998331;28;20040;-85
2023/12/13 06:09:35;;;;;;;2.87;1.50;;;6.10;99.90;;;;;;4999260;28;20060;-85
2023/12/13 06:12:00;;;;;;;4.03;1.33;;;6.10;99.90;;;;;;5000079;28;20507;-86
2023/12/13 06:14:26;;;;;;;2.60;1.50;;;6.00;99.90;;;;;;4995987;28;20035;-85
2023/12/13 06:16:51;;;;;;;2.40;1.40;;;6.00;99.90;;;;;;4999702;28;20038;-85
2023/12/13 06:19:17;;;;;;;3.87;2.23;;;6.00;99.90;;;;;;4997525;28;20025;-86
2023/12/13 06:21:43;;;;;;;5.83;3.50;;;6.00;99.90;;;;;;5002319;28;20057;-84
2023/12/13 06:24:08;;;;;;;9.83;4.10;;;5.90;99.90;;;;;;4985012;28;20117;-83
2023/12/13 06:26:34;;;;;;;5.27;2.50;;;5.90;99.90;;;;;;5002882;28;20093;-86
2023/12/13 06:29:00;;;;;;;4.57;1.40;;;5.90;99.90;;;;;;5003422;28;20481;-84
2023/12/13 06:31:26;;;;;;;4.57;1.50;;;5.90;99.90;;;;;;5003753;28;20113;-85
2023/12/13 06:33:52;;;;;;;5.27;2.17;;;5.90;99.90;;;;;;5002573;28;20133;-86
2023/12/13 06:36:17;;;;;;;3.73;1.80;;;5.80;99.90;;;;;;4984928;28;20034;-86
2023/12/13 06:38:43;;;;;;;3.53;1.57;;;5.80;99.90;;;;;;4985341;28;20076;-86
2023/12/13 06:41:08;;;;;;;3.83;1.87;;;5.80;99.90;;;;;;5002955;28;20027;-84
2023/12/13 06:43:34;;;;;;;5.03;1.50;;;5.80;99.90;;;;;;5001360;28;20029;-84
2023/12/13 06:45:59;;;;;;;3.33;1.70;;;5.70;99.90;;;;;;4999672;28;20155;-84
2023/12/13 06:48:25;;;;;;;3.93;1.60;;;5.70;99.90;;;;;;4999688;28;20033;-85
2023/12/13 06:50:50;;;;;;;2.40;1.30;;;5.70;99.90;;;;;;5001090;28;20026;-83
2023/12/13 06:53:16;;;;;;;2.80;1.67;;;5.60;99.90;;;;;;5001734;28;20144;-83
2023/12/13 06:55:41;;;;;;;4.30;1.47;;;5.60;99.90;;;;;;5000513;28;20109;-83
2023/12/13 06:58:07;;;;;;;8.13;2.63;;;5.50;99.90;;;;;;5002035;28;20030;-83
2023/12/13 07:00:32;;;;;;;3.37;1.60;;;5.50;99.90;;;;;;5002868;28;20030;-84
2023/12/13 07:02:58;;;;;;;1.63;1.30;;;5.50;99.90;;;;;;5002913;28;20026;-83
2023/12/13 07:05:23;;;;;;;4.13;1.80;;;5.40;99.90;;;;;;5000432;28;20165;-84
2023/12/13 07:07:49;;;;;;;2.80;1.60;;;5.40;99.90;;;;;;4998755;28;20042;-84
2023/12/13 07:10:15;;;;;;;4.47;1.57;;;5.40;99.90;;;;;;5000998;28;20064;-85
2023/12/13 07:12:41;;;;;;;2.90;1.57;;;5.40;99.90;;;;;;5002107;28;20097;-83
2023/12/13 07:15:08;;;;;;;4.57;1.50;;;5.40;99.90;;;;;;5002475;28;20076;-83
2023/12/13 07:17:33;;;;;;;2.57;1.33;;;5.40;99.90;;;;;;5000348;28;20049;-87
2023/12/13 07:19:59;;;;;;;3.80;1.23;;;5.40;99.90;;;;;;5003513;28;20464;-85
2023/12/13 07:22:25;;;;;;;3.17;1.10;;;5.40;99.90;;;;;;5002151;28;20028;-82
2023/12/13 07:24:50;;;;;;;3.50;1.20;;;5.40;99.90;;;;;;5004907;28;21375;-82
2023/12/13 07:27:16;;;;;;;3.63;1.30;;;5.30;99.90;;;;;;5002338;28;20066;-84
2023/12/13 07:29:42;;;;;;;5.43;1.63;;;5.30;99.90;;;;;;4998237;28;20041;-86
2023/12/13 07:32:09;;;;;;;4.43;1.30;;;5.30;99.90;;;;;;5000119;28;20034;-86
2023/12/13 07:34:36;;;;;;;2.37;1.47;;;5.30;99.90;;;;;;4997411;28;20076;-88
2023/12/13 07:37:01;;;;;;;2.53;1.53;;;5.30;99.90;;;;;;4997881;28;20148;-84
2023/12/13 07:39:30;;;;;;;4.07;1.60;;;5.30;99.90;;;;;;4998544;28;20165;-84
2023/12/13 07:41:56;;;;;;;4.07;1.70;;;5.30;99.90;;;;;;4998253;28;20030;-84
2023/12/13 07:44:22;;;;;;;2.17;1.20;;;5.30;99.90;;;;;;4995760;28;20029;-87
2023/12/13 07:46:48;;;;;;;3.20;1.57;;;5.30;99.90;;;;;;4997510;28;20077;-88
2023/12/13 07:49:14;;;;;;;5.37;2.27;;;5.30;99.90;;;;;;4979333;28;20109;-84
2023/12/13 07:51:40;;;;;;;3.47;1.67;;;5.20;99.90;;;;;;4980808;28;20420;-89
2023/12/13 07:54:05;;;;;;;3.83;2.10;;;5.20;99.90;;;;;;4998377;28;20030;-84
2023/12/13 07:56:31;;;;;;;6.77;2.53;;;5.20;99.90;;;;;;4996566;28;20025;-84
2023/12/13 07:58:59;;;;;;;4.23;1.97;;;5.20;99.90;;;;;;4976290;28;20032;-83
2023/12/13 08:01:24;;;;;;;3.63;1.80;;;5.20;99.90;;;;;;4976306;28;20098;-83
2023/12/13 08:03:50;;;;;;;3.23;1.67;;;5.20;99.90;;;;;;4992545;28;20116;-87
2023/12/13 08:06:18;;;;;;;2.43;1.67;;;5.20;99.90;;;;;;4993495;28;20563;-87
2023/12/13 08:08:44;;;;;;;6.90;1.83;;;5.30;99.90;;;;;;4992182;28;20073;-86
2023/12/13 08:11:11;;;;;;;4.17;1.73;;;5.30;99.90;;;;;;4997377;28;20034;-89
2023/12/13 08:13:36;;;;;;;3.07;1.70;;;5.30;99.90;;;;;;4994701;28;20038;-91
2023/12/13 08:16:06;;;;;;;5.00;2.00;;;5.30;99.90;;;;;;4992235;28;20666;-78
2023/12/13 08:18:32;;;;;;;6.33;2.00;;;5.30;99.90;;;;;;4986426;28;20052;-79
2023/12/13 08:20:57;;;;;;;3.73;2.20;;;5.40;99.90;;;;;;4989423;28;20030;-78
2023/12/13 08:23:23;;;;;;;7.57;2.13;;;5.40;99.90;;;;;;4989133;28;20030;-79
2023/12/13 08:25:48;;;;;;;3.33;1.90;;;5.50;99.90;;;;;;4987673;28;20165;-79
2023/12/13 08:28:14;;;;;;;4.30;2.17;;;5.50;99.90;;;;;;4987397;28;20581;-79
2023/12/13 08:30:40;;;;;;;4.30;3.00;;;5.50;99.90;;;;;;4992063;28;20032;-79
2023/12/13 08:33:05;;;;;;;6.63;2.83;;;5.50;99.90;;;;;;4992652;28;20034;-79
2023/12/13 08:35:31;;;;;;;8.37;2.20;;;5.60;99.90;;;;;;4994709;28;20041;-78
2023/12/13 08:37:56;;;;;;;4.23;1.77;;;5.60;99.90;;;;;;4994960;28;20188;-78
2023/12/13 08:40:22;;;;;;;6.80;1.73;;;5.60;99.90;;;;;;4994988;28;20026;-79
2023/12/13 08:42:47;;;;;;;3.30;2.07;;;5.60;99.90;;;;;;4998136;28;20060;-78
2023/12/13 08:45:13;;;;;;;3.73;1.83;;;5.60;99.90;;;;;;5001577;28;20088;-83
2023/12/13 08:47:39;;;;;;;4.17;2.40;;;5.60;99.90;;;;;;4999968;28;20057;-83
2023/12/13 08:50:07;;;;;;;4.53;3.37;;;5.70;99.90;;;;;;5004702;28;20026;-83
2023/12/13 08:52:32;;;;;;;5.57;2.60;;;5.70;99.90;;;;;;5000455;28;20433;-81
2023/12/13 08:54:58;;;;;;;6.23;2.87;;;5.70;99.90;;;;;;5000483;28;20034;-81
2023/12/13 08:57:24;;;;;;;6.23;2.70;;;5.80;99.90;;;;;;4999469;28;20045;-82
2023/12/13 08:59:49;;;;;;;4.57;2.10;;;5.80;99.90;;;;;;4981541;28;20054;-82
2023/12/13 09:02:15;;;;;;;6.20;2.47;;;5.80;99.90;;;;;;5001874;28;20041;-82
2023/12/13 09:04:41;;;;;;;2.87;1.87;;;5.90;99.90;;;;;;5000065;28;20061;-84
2023/12/13 09:07:06;;;;;;;4.03;2.10;;;5.90;99.90;;;;;;4984018;28;20088;-83
2023/12/13 09:09:32;;;;;;;5.40;2.30;;;5.90;99.90;;;;;;4997839;28;20044;-82
2023/12/13 09:12:00;;;;;;;5.77;1.93;;;5.90;99.90;;;;;;4994221;28;20181;-83
2023/12/13 09:14:27;;;;;;;3.37;1.90;;;6.00;99.90;;;;;;4997728;28;20082;-82
2023/12/13 09:16:53;;;;;;;4.20;1.60;;;6.00;99.90;;;;;;4996527;28;20026;-82
2023/12/13 09:19:18;;;;;;;4.40;1.60;;;6.10;99.90;;;;;;4997454;28;20460;-82
2023/12/13 09:21:44;;;;;;;6.53;1.70;;;6.20;99.90;;;;;;4999114;28;20030;-83
2023/12/13 09:24:10;;;;;;;4.97;2.13;;;6.30;99.90;;;;;;4999457;28;20022;-83
2023/12/13 09:26:41;;;;;;;3.27;2.07;;;6.40;99.90;;;;;;4980509;28;20124;-85
2023/12/13 09:29:08;;;;;;;4.17;1.90;;;6.50;99.90;;;;;;4996145;28;20052;-84
2023/12/13 09:31:34;;;;;;;5.07;2.10;;;6.60;99.90;;;;;;4998588;28;20105;-86
2023/12/13 09:33:59;;;;;;;5.00;1.90;;;6.70;99.90;;;;;;4997328;28;20038;-83
2023/12/13 09:36:25;;;;;;;5.60;1.60;;;6.80;99.90;;;;;;4998532;28;20022;-83
2023/12/13 09:38:50;;;;;;;4.60;1.90;;;6.80;99.90;;;;;;4996468;28;20064;-86
2023/12/13 09:41:25;;;;;;;2.50;1.40;;;6.90;99.90;;;;;;4997060;28;20712;-84
2023/12/13 09:43:50;;;;;;;3.80;1.43;;;6.80;99.90;;;;;;4983385;28;20125;-83
2023/12/13 09:46:19;;;;;;;1.13;1.03;;;6.90;99.90;;;;;;4999074;28;20033;-83
2023/12/13 09:48:45;;;;;;;2.73;1.40;;;7.00;99.90;;;;;;4973962;28;20026;-83
2023/12/13 09:51:12;;;;;;;2.60;1.20;;;7.00;99.90;;;;;;4997696;28;20018;-85
2023/12/13 09:53:40;;;;;;;4.87;1.30;;;7.10;99.90;;;;;;4997774;28;20873;-87
2023/12/13 09:56:08;;;;;;;2.80;1.67;;;7.20;99.90;;;;;;4999212;28;20100;-82
2023/12/13 09:58:35;;;;;;;4.17;1.73;;;7.30;99.90;;;;;;4997555;28;20044;-86
2023/12/13 10:01:10;;;;;;;2.10;1.30;;;7.50;99.90;;;;;;4997942;28;20042;-82
2023/12/13 10:03:37;;;;;;;2.27;1.23;;;7.50;99.90;;;;;;4998903;28;20044;-84
2023/12/13 10:06:05;;;;;;;2.53;1.33;;;7.50;99.90;;;;;;4998008;28;20042;-83
2023/12/13 10:08:31;;;;;;;2.70;1.43;;;7.60;99.90;;;;;;4995628;28;20117;-83
2023/12/13 10:10:57;;;;;;;7.73;2.07;;;7.60;99.90;;;;;;4978379;28;20128;-86
2023/12/13 10:13:23;;;;;;;4.87;2.57;;;7.70;99.90;;;;;;4997767;28;20102;-85
2023/12/13 10:15:48;;;;;;;3.40;1.80;;;7.80;99.90;;;;;;4998659;28;20038;-82
2023/12/13 10:18:16;;;;;;;4.93;1.57;;;7.80;99.90;;;;;;4997485;28;20052;-84
2023/12/13 10:20:41;;;;;;;1.90;1.20;;;7.90;99.90;;;;;;4997049;28;20069;-82
2023/12/13 10:23:07;;;;;;;3.77;1.27;;;7.90;99.90;;;;;;4995166;28;20113;-83
2023/12/13 10:25:36;;;;;;;3.73;1.30;;;8.00;99.90;;;;;;4996717;28;20057;-82
2023/12/13 10:28:04;;;;;;;4.23;1.50;;;8.00;99.90;;;;;;4998479;28;20036;-86
2023/12/13 10:30:30;;;;;;;3.37;1.70;;;8.00;99.90;;;;;;4996677;28;20025;-84
2023/12/13 10:32:55;;;;;;;4.57;1.40;;;8.00;99.90;;;;;;4997906;28;21457;-82
2023/12/13 10:35:22;;;;;;;3.60;1.30;;;8.00;99.90;;;;;;4995808;28;20494;-83
2023/12/13 10:37:50;;;;;;;4.50;1.30;;;8.10;99.90;;;;;;4987051;28;20026;-83
2023/12/13 10:40:17;;;;;;;5.10;1.50;;;8.10;99.90;;;;;;4998292;28;21315;-82
2023/12/13 10:42:45;;;;;;;3.40;1.50;;;8.10;99.90;;;;;;4996105;28;20183;-79
2023/12/13 10:45:12;;;;;;;3.70;1.37;;;8.10;99.90;;;;;;4998555;28;20026;-82
2023/12/13 10:47:43;;;;;;;2.57;1.50;;;8.10;99.90;;;;;;4998160;28;20022;-81
2023/12/13 10:50:10;;;;;;;3.67;1.40;;;8.10;99.90;;;;;;4998500;28;20042;-83
2023/12/13 10:52:38;;;;;;;4.67;1.60;;;8.10;99.90;;;;;;4998520;28;20030;-82
2023/12/13 10:55:08;;;;;;;6.57;1.60;;;8.10;99.90;;;;;;4998599;28;20164;-82
2023/12/13 10:57:36;;;;;;;3.07;1.40;;;8.10;99.90;;;;;;4998651;28;20034;-82
2023/12/13 11:00:05;;;;;;;4.00;1.67;;;8.10;99.90;;;;;;4997900;28;20037;-82
2023/12/13 11:02:52;;;;;;;4.93;2.20;;;8.10;99.90;;;;;;4999027;28;20049;-83
2023/12/13 11:05:19;;;;;;;4.78;2.03;;;8.20;99.90;;;;;;4980731;28;20026;-82
2023/12/13 11:07:47;;;;;;;6.53;2.10;;;8.20;99.90;;;;;;4998775;28;20040;-83
2023/12/13 11:10:14;;;;;;;5.70;2.40;;;8.20;99.90;;;;;;4996565;28;20396;-83
2023/12/13 11:12:52;;;;;;;3.73;1.80;;;8.20;99.90;;;;;;4997659;28;20444;-82
2023/12/13 11:15:19;;;;;;;4.83;1.67;;;8.30;99.90;;;;;;4998108;28;20033;-84
2023/12/13 11:17:55;;;;;;;5.60;1.63;;;8.30;99.90;;;;;;4996859;28;20098;-84
2023/12/13 11:20:21;;;;;;;5.23;1.90;;;8.40;99.90;;;;;;4996938;28;20061;-84
2023/12/13 11:22:48;;;;;;;6.53;1.70;;;8.40;99.90;;;;;;4997512;28;20042;-84
2023/12/13 11:25:14;;;;;;;5.60;1.93;;;8.50;99.90;;;;;;4998018;28;20768;-82
2023/12/13 11:27:55;;;;;;;5.40;1.97;;;8.50;99.90;;;;;;4993529;28;20080;-83
2023/12/13 11:30:21;;;;;;;3.60;1.70;;;8.60;99.90;;;;;;4997488;28;20090;-83
2023/12/13 11:32:47;;;;;;;4.30;1.70;;;8.60;99.90;;;;;;4988757;28;20117;-84
2023/12/13 11:35:15;;;;;;;4.43;1.20;;;8.70;99.90;;;;;;4988365;28;20034;-89
2023/12/13 11:37:42;;;;;;;2.20;1.10;;;8.80;99.90;;;;;;4985305;28;20485;-85
2023/12/13 11:40:09;;;;;;;3.27;1.07;;;8.80;99.90;;;;;;4984752;28;20037;-86
2023/12/13 11:42:34;;;;;;;2.87;1.00;;;8.90;99.90;;;;;;4985565;28;20073;-83
2023/12/13 11:45:00;;;;;;;2.60;1.10;;;8.90;99.90;;;;;;4987063;28;20955;-82
2023/12/13 11:47:25;;;;;;;2.10;1.20;;;8.90;99.90;;;;;;4985850;28;20030;-83
2023/12/13 11:49:51;;;;;;;2.53;1.30;;;9.00;99.90;;;;;;4987627;28;20030;-83
2023/12/13 11:52:16;;;;;;;2.10;1.10;;;9.00;99.90;;;;;;4984639;28;20520;-83
2023/12/13 11:54:42;;;;;;;3.17;1.10;;;9.00;99.90;;;;;;4988141;28;20556;-82
2023/12/13 11:57:15;;;;;;;1.47;1.00;;;9.00;99.90;;;;;;4986562;28;20320;-85
2023/12/13 11:59:42;;;;;;;3.13;1.30;;;9.00;99.90;;;;;;4985697;28;20417;-87
2023/12/13 12:02:08;;;;;;;1.57;0.97;;;9.00;99.90;;;;;;4970206;28;20041;-86
2023/12/13 12:04:35;;;;;;;2.53;1.30;;;9.00;99.90;;;;;;4986007;28;20492;-84
2023/12/13 12:07:01;;;;;;;3.87;1.10;;;9.10;99.90;;;;;;4986335;28;20030;-82
2023/12/13 12:09:26;;;;;;;2.97;1.20;;;9.10;99.90;;;;;;4986911;28;20649;-83
2023/12/13 12:11:53;;;;;;;1.20;0.90;;;9.10;99.90;;;;;;4984938;28;20808;-82
2023/12/13 12:14:19;;;;;;;2.03;0.90;;;9.10;99.90;;;;;;4986651;28;20026;-85
2023/12/13 12:16:44;;;;;;;5.27;1.77;;;9.10;99.90;;;;;;4988662;28;21384;-83
2023/12/13 12:19:10;;;;;;;2.40;1.13;;;9.10;99.90;;;;;;4987162;28;20124;-83
2023/12/13 12:21:36;;;;;;;3.00;0.90;;;9.00;99.90;;;;;;4986695;28;20480;-86
2023/12/13 12:24:02;;;;;;;2.50;0.90;;;9.00;99.90;;;;;;4988179;28;20053;-84
2023/12/13 12:26:28;;;;;;;2.70;1.00;;;9.00;99.90;;;;;;4994953;28;20037;-84
2023/12/13 12:28:54;;;;;;;2.40;1.10;;;8.80;99.90;;;;;;5004980;28;20645;-84
2023/12/13 12:31:19;;;;;;;3.07;0.90;;;8.70;99.90;;;;;;5001854;28;20413;-83
2023/12/13 12:33:55;;;;;;;2.83;1.07;;;8.60;99.90;;;;;;4987627;28;20121;-84
2023/12/13 12:36:20;;;;;;;2.00;0.97;;;8.50;99.90;;;;;;4986960;28;20439;-84
2023/12/13 12:38:47;;;;;;;2.20;1.00;;;8.40;99.90;;;;;;4986963;28;20038;-84
2023/12/13 12:41:12;;;;;;;1.67;0.90;;;8.40;99.90;;;;;;4970084;28;21111;-83
2023/12/13 12:43:39;;;;;;;2.23;1.03;;;8.30;99.90;;;;;;4994386;28;20030;-83
2023/12/13 12:46:05;;;;;;;1.40;1.00;;;8.30;99.90;;;;;;4996557;28;20030;-84
2023/12/13 12:48:31;;;;;;;2.27;1.20;;;8.20;99.90;;;;;;4996352;28;20037;-84
2023/12/13 12:50:56;;;;;;;2.17;1.20;;;8.20;99.90;;;;;;4997309;28;20031;-83
2023/12/13 12:53:22;;;;;;;3.37;1.10;;;8.30;99.90;;;;;;4995854;28;21325;-83